Time;durP1;ratioP1;P1;durP2;ratioP2;P2;SDS_P1;SDS_P2;PMS_P1;PMS_P2;Temp;Humidity;BMP_temperature;BMP_pressure;BME280_temperature;BME280_humidity;BME280_pressure;Samples;Min_cycle;Max_cycle;Signal;HPM_P1;HPM_P2
2023/10/10 00:01:17;;;;;;;8.65;4.75;;;15.10;99.90;;;;;;5072975;28;20299;-79
2023/10/10 00:03:45;;;;;;;8.30;5.25;;;15.10;99.90;;;;;;5055080;28;20024;-80
2023/10/10 00:06:13;;;;;;;8.60;4.88;;;15.20;99.90;;;;;;5072522;28;20044;-79
2023/10/10 00:08:46;;;;;;;7.93;5.57;;;15.20;99.90;;;;;;5074031;28;20038;-78
2023/10/10 00:11:16;;;;;;;7.70;5.25;;;15.20;99.90;;;;;;5072323;28;20025;-78
2023/10/10 00:13:43;;;;;;;6.30;4.75;;;15.10;99.90;;;;;;5072405;28;20058;-78
2023/10/10 00:16:23;;;;;;;8.27;5.32;;;15.20;99.90;;;;;;5073296;28;20025;-79
2023/10/10 00:18:51;;;;;;;8.50;5.22;;;15.20;99.90;;;;;;5072063;28;20096;-78
2023/10/10 00:21:23;;;;;;;9.25;5.90;;;15.20;99.90;;;;;;5073675;28;20016;-78
2023/10/10 00:23:50;;;;;;;9.52;5.30;;;15.10;99.90;;;;;;5070702;28;20103;-78
2023/10/10 00:26:23;;;;;;;10.52;5.43;;;15.10;99.90;;;;;;5072779;28;20093;-78
2023/10/10 00:28:55;;;;;;;7.88;4.88;;;15.10;99.90;;;;;;5038370;28;20036;-78
2023/10/10 00:31:26;;;;;;;8.02;5.05;;;15.10;99.90;;;;;;5071805;28;20056;-77
2023/10/10 00:33:54;;;;;;;6.90;4.63;;;15.10;99.90;;;;;;5071800;28;20028;-76
2023/10/10 00:39:06;;;;;;;7.10;4.65;;;15.10;99.90;;;;;;5073460;28;20028;-78
2023/10/10 00:41:42;;;;;;;5.65;4.18;;;15.20;99.90;;;;;;5073407;28;20085;-78
2023/10/10 00:44:12;;;;;;;7.72;4.68;;;15.20;99.90;;;;;;5070673;28;20031;-78
2023/10/10 00:46:39;;;;;;;9.43;5.05;;;15.10;99.90;;;;;;5071525;28;20039;-78
2023/10/10 00:49:07;;;;;;;8.70;4.68;;;15.10;99.90;;;;;;5072405;28;20029;-79
2023/10/10 00:51:33;;;;;;;6.93;4.50;;;15.00;99.90;;;;;;5070505;28;20070;-79
2023/10/10 00:54:25;;;;;;;8.95;4.20;;;15.10;99.90;;;;;;5070388;28;20028;-79
2023/10/10 00:56:56;;;;;;;10.40;5.10;;;15.00;99.90;;;;;;5070140;28;20036;-79
2023/10/10 01:01:55;;;;;;;6.03;3.80;;;15.00;99.90;;;;;;5069847;28;20112;-79
2023/10/10 01:04:35;;;;;;;6.55;4.55;;;15.10;99.90;;;;;;5052877;28;20116;-80
2023/10/10 01:07:07;;;;;;;9.23;4.10;;;15.10;99.90;;;;;;5070052;28;20038;-79
2023/10/10 01:09:51;;;;;;;8.32;4.65;;;15.20;99.90;;;;;;5070808;28;20055;-77
2023/10/10 01:12:17;;;;;;;7.10;4.70;;;15.20;99.90;;;;;;5055002;28;20028;-77
2023/10/10 01:14:43;;;;;;;6.57;4.30;;;15.30;99.90;;;;;;5071474;28;20036;-78
2023/10/10 01:17:12;;;;;;;6.15;3.90;;;15.30;99.90;;;;;;5070792;28;20043;-78
2023/10/10 01:19:38;;;;;;;9.40;4.90;;;15.30;99.90;;;;;;5070994;28;20127;-78
2023/10/10 01:22:22;;;;;;;8.32;4.07;;;15.30;99.90;;;;;;5070053;28;20060;-78
2023/10/10 01:24:53;;;;;;;7.40;4.40;;;15.20;99.90;;;;;;5071096;28;20082;-78
2023/10/10 01:27:21;;;;;;;7.85;4.55;;;15.30;99.90;;;;;;5070445;28;20036;-78
2023/10/10 01:29:50;;;;;;;10.80;4.47;;;15.20;99.90;;;;;;5052549;28;20115;-78
2023/10/10 01:32:18;;;;;;;7.28;4.75;;;15.20;99.90;;;;;;5070649;28;20020;-78
2023/10/10 01:34:44;;;;;;;8.38;5.03;;;15.20;99.90;;;;;;5070541;28;20031;-78
2023/10/10 01:37:20;;;;;;;8.38;4.95;;;15.20;99.90;;;;;;5070285;28;20051;-79
2023/10/10 01:40:00;;;;;;;7.68;4.90;;;15.20;99.90;;;;;;5072482;28;20043;-78
2023/10/10 01:42:37;;;;;;;9.40;5.50;;;15.20;99.90;;;;;;5071436;28;20107;-79
2023/10/10 01:45:10;;;;;;;8.45;5.47;;;15.20;99.90;;;;;;5069368;28;20451;-79
2023/10/10 01:47:39;;;;;;;10.10;5.40;;;15.20;99.90;;;;;;5070243;28;20153;-78
2023/10/10 01:50:08;;;;;;;6.57;5.05;;;15.10;99.90;;;;;;5069439;28;20025;-78
2023/10/10 01:52:46;;;;;;;9.70;5.28;;;15.10;99.90;;;;;;5070182;28;20040;-78
2023/10/10 01:55:12;;;;;;;9.07;5.05;;;15.20;99.90;;;;;;5069768;28;20768;-79
2023/10/10 01:57:38;;;;;;;9.25;5.15;;;15.20;99.90;;;;;;5069744;28;20029;-79
2023/10/10 02:02:53;;;;;;;8.52;4.78;;;15.20;99.90;;;;;;5070322;28;20031;-77
2023/10/10 02:05:32;;;;;;;9.73;6.03;;;15.20;99.90;;;;;;5070205;28;20062;-79
2023/10/10 02:07:58;;;;;;;9.82;5.00;;;15.30;99.90;;;;;;5052207;28;20491;-79
2023/10/10 02:10:30;;;;;;;12.90;5.75;;;15.30;99.90;;;;;;5072671;28;20436;-78
2023/10/10 02:13:05;;;;;;;9.35;4.60;;;15.30;99.90;;;;;;5070023;28;20143;-79
2023/10/10 02:15:35;;;;;;;8.95;5.32;;;15.30;99.90;;;;;;5071764;28;20052;-78
2023/10/10 02:18:23;;;;;;;10.07;4.80;;;15.30;99.90;;;;;;5070383;28;20058;-78
2023/10/10 02:20:50;;;;;;;12.77;5.40;;;15.40;99.90;;;;;;5073379;28;20025;-78
2023/10/10 02:23:34;;;;;;;8.13;4.97;;;15.30;99.90;;;;;;5051857;28;20103;-78
2023/10/10 02:26:43;;;;;;;8.65;4.50;;;15.30;99.90;;;;;;5070703;28;20111;-79
2023/10/10 02:29:16;;;;;;;11.73;5.60;;;15.30;99.90;;;;;;5059689;28;20058;-77
2023/10/10 02:31:40;;;;;;;8.13;5.07;;;15.30;99.90;;;;;;5072131;28;20029;-78
2023/10/10 02:34:10;;;;;;;11.25;5.25;;;15.40;99.90;;;;;;5071429;28;20028;-78
2023/10/10 02:36:36;;;;;;;7.90;4.43;;;15.30;99.90;;;;;;5070469;28;20364;-77
2023/10/10 02:39:18;;;;;;;9.38;4.97;;;15.30;99.90;;;;;;5070827;28;20515;-77
2023/10/10 02:41:58;;;;;;;11.10;5.70;;;15.40;99.90;;;;;;5052557;28;20429;-78
2023/10/10 02:44:38;;;;;;;7.93;5.00;;;15.30;99.90;;;;;;5071489;28;20024;-78
2023/10/10 02:47:04;;;;;;;8.00;4.68;;;15.30;99.90;;;;;;5071342;28;20035;-78
2023/10/10 02:49:30;;;;;;;6.43;4.70;;;15.40;99.90;;;;;;5074751;28;20033;-78
2023/10/10 02:51:57;;;;;;;7.38;5.40;;;15.40;99.90;;;;;;5073028;28;20055;-78
2023/10/10 02:56:57;;;;;;;7.85;5.05;;;15.40;99.90;;;;;;5073918;28;20044;-78
2023/10/10 02:59:32;;;;;;;8.90;5.68;;;15.40;99.90;;;;;;5074523;28;20017;-77
2023/10/10 03:02:08;;;;;;;7.63;5.13;;;15.40;99.90;;;;;;5074385;28;20032;-78
2023/10/10 03:05:06;;;;;;;11.18;5.43;;;15.40;99.90;;;;;;5074402;28;20378;-78
2023/10/10 03:07:32;;;;;;;8.93;5.60;;;15.40;99.90;;;;;;5073357;28;20028;-77
2023/10/10 03:12:41;;;;;;;11.80;6.53;;;15.40;99.90;;;;;;5073542;28;20082;-79
2023/10/10 03:18:14;;;;;;;11.07;6.20;;;15.40;99.90;;;;;;5072992;28;20048;-79
2023/10/10 03:26:04;;;;;;;11.52;5.90;;;15.40;99.90;;;;;;5075545;28;20110;-79
2023/10/10 03:28:33;;;;;;;8.88;5.43;;;15.30;99.90;;;;;;5073378;28;20036;-79
2023/10/10 03:31:08;;;;;;;11.18;5.75;;;15.30;99.90;;;;;;5075232;28;20024;-79
2023/10/10 03:33:44;;;;;;;9.02;5.05;;;15.30;99.90;;;;;;5073205;28;20029;-77
2023/10/10 05:25:37;;;;;;;9.80;4.57;;;14.90;99.90;;;;;;5071568;28;20090;-77
2023/10/10 05:28:03;;;;;;;11.23;4.57;;;14.80;99.90;;;;;;5071113;28;20040;-78
2023/10/10 05:30:39;;;;;;;10.65;5.10;;;14.80;99.90;;;;;;5070383;28;20108;-78
2023/10/10 05:33:06;;;;;;;8.77;4.78;;;14.80;99.90;;;;;;5071143;28;20111;-78
2023/10/10 05:35:34;;;;;;;10.20;4.63;;;14.80;99.90;;;;;;5070901;28;20032;-79
2023/10/10 05:38:01;;;;;;;7.15;4.55;;;14.80;99.90;;;;;;5052903;28;20028;-79
2023/10/10 05:40:33;;;;;;;8.02;4.53;;;14.80;99.90;;;;;;5070122;28;20058;-79
2023/10/10 05:43:49;;;;;;;7.25;4.97;;;14.80;99.90;;;;;;5053638;28;20332;-78
2023/10/10 05:45:48;;;;;;;9.95;4.43;;;14.90;99.90;;;;;;5056323;28;20025;-78
2023/10/10 05:48:14;;;;;;;9.02;5.05;;;15.00;99.90;;;;;;5070224;28;20048;-79
2023/10/10 05:50:42;;;;;;;7.63;5.28;;;15.00;99.90;;;;;;5052867;28;20074;-77
2023/10/10 05:53:09;;;;;;;10.38;5.43;;;15.10;99.90;;;;;;5070560;28;20025;-79
2023/10/10 05:55:38;;;;;;;5.32;4.75;;;15.10;99.90;;;;;;5070541;28;20427;-78
2023/10/10 05:58:05;;;;;;;10.40;5.40;;;15.30;99.90;;;;;;5070197;28;20163;-78
2023/10/10 06:00:36;;;;;;;10.25;5.72;;;15.40;99.90;;;;;;5069937;28;20543;-78
2023/10/10 06:03:05;;;;;;;9.10;5.50;;;15.40;99.90;;;;;;5070950;28;20297;-78
2023/10/10 06:05:33;;;;;;;12.85;5.70;;;15.50;99.90;;;;;;5069727;28;20077;-78
2023/10/10 06:07:59;;;;;;;7.68;4.88;;;15.50;99.90;;;;;;5070571;28;20028;-78
2023/10/10 06:10:31;;;;;;;9.10;5.30;;;15.60;99.90;;;;;;5069534;28;20021;-78
2023/10/10 06:12:58;;;;;;;11.52;5.05;;;15.80;99.90;;;;;;5053144;28;20067;-78
2023/10/10 06:15:23;;;;;;;9.75;4.18;;;15.90;99.90;;;;;;5052645;28;20060;-78
2023/10/10 06:17:49;;;;;;;8.32;4.63;;;16.10;99.90;;;;;;5070251;28;20068;-78
2023/10/10 06:20:21;;;;;;;7.88;3.97;;;16.20;99.90;;;;;;5069770;28;20094;-78
2023/10/10 06:22:54;;;;;;;9.65;4.65;;;16.30;99.90;;;;;;5072593;28;20133;-78
2023/10/10 06:25:21;;;;;;;11.25;5.63;;;16.40;99.90;;;;;;5073569;28;20463;-78
2023/10/10 06:27:54;;;;;;;9.93;4.85;;;16.50;99.90;;;;;;5074054;28;20040;-78
2023/10/10 06:30:24;;;;;;;;;;;16.50;99.90;;;;;;5074774;28;20028;-77
2023/10/10 06:32:50;;;;;;;8.52;3.72;;;16.50;99.90;;;;;;5078209;28;19904;-78
2023/10/10 06:37:54;;;;;;;13.63;9.00;;;16.60;99.90;;;;;;5073266;28;20067;-78
2023/10/10 06:40:28;;;;;;;10.38;6.57;;;16.70;99.90;;;;;;5073100;28;20094;-78
2023/10/10 06:42:57;;;;;;;12.07;6.68;;;16.70;99.90;;;;;;5056463;28;20055;-79
2023/10/10 06:45:24;;;;;;;13.70;6.80;;;16.60;99.90;;;;;;5073183;28;20382;-79
2023/10/10 06:47:54;;;;;;;9.68;5.68;;;16.70;99.90;;;;;;5073489;28;20426;-79
2023/10/10 06:50:23;;;;;;;6.28;4.70;;;16.70;99.90;;;;;;5072748;28;20085;-79
2023/10/10 06:52:53;;;;;;;10.98;4.43;;;16.70;99.90;;;;;;5072997;28;20028;-79
2023/10/10 06:55:23;;;;;;;10.23;4.43;;;16.70;99.90;;;;;;5072600;28;20031;-80
2023/10/10 06:57:59;;;;;;;9.98;4.10;;;16.80;99.90;;;;;;5072895;28;20025;-79
2023/10/10 07:00:28;;;;;;;9.00;4.28;;;16.80;99.90;;;;;;5072669;28;20032;-80
2023/10/10 07:02:55;;;;;;;11.38;4.80;;;16.80;99.90;;;;;;5072905;28;20115;-80
2023/10/10 07:05:26;;;;;;;12.40;4.47;;;16.80;99.90;;;;;;5072859;28;20056;-78
2023/10/10 07:07:57;;;;;;;15.05;4.85;;;16.70;99.90;;;;;;5074817;28;20028;-78
2023/10/10 07:10:32;;;;;;;11.23;5.10;;;16.70;99.90;;;;;;5075156;28;20476;-79
2023/10/10 07:12:59;;;;;;;10.20;4.60;;;16.70;99.90;;;;;;5073081;28;20162;-78
2023/10/10 07:15:26;;;;;;;8.38;4.80;;;16.70;99.90;;;;;;5072480;28;20024;-78
2023/10/10 07:18:08;;;;;;;8.20;4.22;;;16.80;99.90;;;;;;5073044;28;20032;-78
2023/10/10 07:23:20;;;;;;;11.75;4.70;;;16.90;99.90;;;;;;5072298;28;20490;-79
2023/10/10 07:25:59;;;;;;;10.50;4.72;;;16.90;99.90;;;;;;5072701;28;20020;-79
2023/10/10 07:28:26;;;;;;;11.30;5.57;;;16.90;99.90;;;;;;5071987;28;20494;-79
2023/10/10 07:30:55;;;;;;;12.60;4.78;;;17.00;99.90;;;;;;5072242;28;20016;-78
2023/10/10 07:33:29;;;;;;;7.28;4.35;;;17.00;99.90;;;;;;5071409;28;20024;-79
2023/10/10 07:35:55;;;;;;;16.90;5.35;;;17.00;99.90;;;;;;5072981;28;20039;-78
2023/10/10 07:38:28;;;;;;;11.02;4.57;;;17.00;99.90;;;;;;5073023;28;20040;-79
2023/10/10 07:40:54;;;;;;;12.45;5.13;;;17.10;99.90;;;;;;5072591;28;20021;-78
2023/10/10 07:43:26;;;;;;;10.07;4.43;;;17.20;99.90;;;;;;5072256;28;20074;-79
2023/10/10 07:45:54;;;;;;;13.63;4.68;;;17.30;99.90;;;;;;5072526;28;20119;-79
2023/10/10 07:50:55;;;;;;;10.45;4.07;;;17.50;99.90;;;;;;5071607;28;20442;-80
2023/10/10 07:53:33;;;;;;;7.33;4.17;;;17.50;99.90;;;;;;5071189;28;20049;-79
2023/10/10 07:58:29;;;;;;;10.02;4.22;;;17.70;99.90;;;;;;5071698;28;20028;-79
2023/10/10 08:01:10;;;;;;;6.65;4.35;;;17.70;99.90;;;;;;5053882;28;20485;-79
2023/10/10 08:03:36;;;;;;;9.10;4.65;;;17.70;99.90;;;;;;5072834;28;20179;-79
2023/10/10 08:06:08;;;;;;;8.50;4.60;;;17.60;99.90;;;;;;5072562;28;20320;-80
2023/10/10 08:08:35;;;;;;;10.30;4.05;;;17.60;99.90;;;;;;5071494;28;20029;-79
2023/10/10 08:11:12;;;;;;;12.15;4.45;;;17.70;99.90;;;;;;5071523;28;20029;-79
2023/10/10 08:13:40;;;;;;;9.98;4.70;;;17.70;99.90;;;;;;5071285;28;20516;-79
2023/10/10 08:16:06;;;;;;;9.23;4.97;;;17.70;99.90;;;;;;5071389;28;20383;-78
2023/10/10 08:21:12;;;;;;;10.50;4.78;;;17.90;99.90;;;;;;5072650;28;20025;-78
2023/10/10 08:23:46;;;;;;;10.35;4.05;;;18.10;99.90;;;;;;5071048;28;20052;-79
2023/10/10 08:26:18;;;;;;;8.13;4.22;;;18.00;99.90;;;;;;5053989;28;20056;-79
2023/10/10 08:28:48;;;;;;;9.38;4.40;;;18.10;99.90;;;;;;5071114;28;20037;-79
2023/10/10 08:31:15;;;;;;;10.40;4.20;;;18.20;99.90;;;;;;5071755;28;20116;-79
2023/10/10 08:33:44;;;;;;;9.70;4.60;;;18.20;99.90;;;;;;5070535;28;20427;-78
2023/10/10 08:36:23;;;;;;;7.45;4.13;;;18.30;99.90;;;;;;5070882;28;20024;-79
2023/10/10 08:38:56;;;;;;;6.32;3.75;;;18.40;99.90;;;;;;5071411;28;20028;-80
2023/10/10 08:41:27;;;;;;;8.27;4.40;;;18.40;99.90;;;;;;5071927;28;20031;-79
2023/10/10 08:44:01;;;;;;;8.73;4.20;;;18.50;99.90;;;;;;5070831;28;20035;-79
2023/10/10 08:46:31;;;;;;;9.48;3.60;;;18.50;99.90;;;;;;5071290;28;20032;-78
2023/10/10 08:49:04;;;;;;;8.43;3.83;;;18.70;99.90;;;;;;5072890;28;20078;-79
2023/10/10 08:51:34;;;;;;;9.88;3.92;;;18.70;99.90;;;;;;5071099;28;20056;-79
2023/10/10 08:54:15;;;;;;;10.88;3.97;;;18.70;99.90;;;;;;5071445;28;20052;-79
2023/10/10 08:57:27;;;;;;;8.75;3.55;;;18.70;99.90;;;;;;5070712;28;20656;-78
2023/10/10 08:59:42;;;;;;;9.07;3.83;;;18.80;99.90;;;;;;5066094;28;20044;-80
2023/10/10 09:02:19;;;;;;;8.30;3.90;;;18.90;99.90;;;;;;5072500;28;20063;-79
2023/10/10 09:04:46;;;;;;;12.10;3.78;;;18.90;99.90;;;;;;5072208;28;20024;-80
2023/10/10 09:07:20;;;;;;;11.25;3.20;;;19.00;99.90;;;;;;5071448;28;20032;-80
2023/10/10 09:09:54;;;;;;;9.05;4.10;;;19.00;99.90;;;;;;5071768;28;20516;-80
2023/10/10 09:12:20;;;;;;;7.63;3.83;;;19.00;99.90;;;;;;5054133;28;20461;-80
2023/10/10 09:14:50;;;;;;;9.73;4.20;;;19.10;99.90;;;;;;5072797;28;20024;-79
2023/10/10 09:17:40;;;;;;;11.07;4.47;;;19.10;99.90;;;;;;5071436;28;20116;-80
2023/10/10 09:20:22;;;;;;;9.07;4.50;;;19.10;99.90;;;;;;5071776;28;20024;-80
2023/10/10 09:22:51;;;;;;;5.93;3.30;;;19.20;99.90;;;;;;5070647;28;20452;-80
2023/10/10 09:25:22;;;;;;;8.10;3.85;;;19.20;99.90;;;;;;5071564;28;20028;-79
2023/10/10 09:27:58;;;;;;;6.40;3.78;;;19.20;99.90;;;;;;5071477;28;20484;-79
2023/10/10 09:30:31;;;;;;;9.45;4.32;;;19.30;99.90;;;;;;5069941;28;20035;-80
2023/10/10 09:33:16;;;;;;;6.38;3.97;;;19.30;99.90;;;;;;5071960;28;20036;-80
2023/10/10 09:35:48;;;;;;;14.60;4.95;;;19.30;99.90;;;;;;5069859;28;20016;-80
2023/10/10 09:38:20;;;;;;;9.38;4.57;;;19.30;99.90;;;;;;5071409;28;20072;-80
2023/10/10 09:40:48;;;;;;;7.65;4.45;;;19.30;99.90;;;;;;5070197;28;20069;-80
2023/10/10 09:43:24;;;;;;;12.00;3.83;;;19.30;99.90;;;;;;5070642;28;20044;-80
2023/10/10 09:46:10;;;;;;;10.88;4.25;;;19.30;99.90;;;;;;5071729;28;20032;-80
2023/10/10 09:54:00;;;;;;;12.68;4.43;;;19.40;99.90;;;;;;5070202;28;20035;-80
2023/10/10 09:56:29;;;;;;;10.93;3.80;;;19.40;99.90;;;;;;5053975;28;20130;-81
2023/10/10 09:58:59;;;;;;;11.00;4.28;;;19.50;99.90;;;;;;5074262;28;20032;-80
2023/10/10 10:01:27;;;;;;;11.85;4.72;;;19.50;99.90;;;;;;5056489;28;20107;-81
2023/10/10 10:04:00;;;;;;;9.00;4.50;;;19.50;99.90;;;;;;5055521;28;20028;-80
2023/10/10 10:06:54;;;;;;;14.25;3.85;;;19.60;99.90;;;;;;5074426;28;20027;-80
2023/10/10 10:09:31;;;;;;;10.65;4.55;;;19.60;99.90;;;;;;5073501;28;20475;-80
2023/10/10 10:12:29;;;;;;;8.00;3.88;;;19.70;99.90;;;;;;5073530;28;20467;-80
2023/10/10 10:15:12;;;;;;;9.25;4.05;;;19.70;99.90;;;;;;5073853;28;20481;-80
2023/10/10 10:23:45;;;;;;;7.70;4.20;;;19.70;99.90;;;;;;5075232;28;20028;-78
2023/10/10 10:26:34;;;;;;;11.60;4.35;;;19.80;99.90;;;;;;5073513;28;20027;-78
2023/10/10 10:29:15;;;;;;;8.95;4.47;;;19.80;99.90;;;;;;5055974;28;20024;-80
2023/10/10 10:31:49;;;;;;;8.25;4.22;;;19.90;99.90;;;;;;5075514;28;20031;-79
2023/10/10 10:34:31;;;;;;;11.73;4.10;;;20.00;99.90;;;;;;5073180;28;20074;-78
2023/10/10 10:37:12;;;;;;;10.60;4.30;;;20.10;99.90;;;;;;5073362;28;20359;-80
2023/10/10 10:40:09;;;;;;;11.70;4.50;;;20.10;99.90;;;;;;5072205;28;20032;-79
2023/10/10 10:42:27;;;;;;;10.13;4.97;;;20.20;99.90;;;;;;5072234;28;20029;-79
2023/10/10 10:47:45;;;;;;;8.75;4.30;;;20.30;99.90;;;;;;5072389;28;20090;-79
2023/10/10 10:50:29;;;;;;;9.15;4.13;;;20.40;99.90;;;;;;5072705;28;20082;-80
2023/10/10 10:53:08;;;;;;;8.07;4.50;;;20.40;99.90;;;;;;5073584;28;20036;-80
2023/10/10 10:55:40;;;;;;;9.45;4.43;;;20.50;99.90;;;;;;5073334;28;20441;-81
2023/10/10 10:58:20;;;;;;;7.72;4.45;;;20.50;99.90;;;;;;5075104;28;20115;-80
2023/10/10 11:03:32;;;;;;;6.18;3.78;;;20.60;99.90;;;;;;5074276;28;20032;-80
2023/10/10 11:05:59;;;;;;;8.05;4.10;;;20.60;99.90;;;;;;5055847;28;20396;-79
2023/10/10 11:14:00;;;;;;;8.90;4.68;;;20.90;99.90;;;;;;5072748;28;20033;-80
2023/10/10 11:16:39;;;;;;;9.30;4.32;;;20.90;99.90;;;;;;5054391;28;20028;-80
2023/10/10 11:19:38;;;;;;;8.15;4.35;;;21.00;99.90;;;;;;5073731;28;20070;-79
2023/10/10 11:22:05;;;;;;;8.95;4.70;;;21.00;99.90;;;;;;5073343;28;20040;-79
2023/10/10 11:24:32;;;;;;;9.10;4.18;;;21.00;99.90;;;;;;5073136;28;20374;-79
2023/10/10 11:29:47;;;;;;;8.38;4.18;;;21.00;99.90;;;;;;5073151;28;20036;-78
2023/10/10 11:32:23;;;;;;;15.90;4.80;;;21.00;99.90;;;;;;5073375;28;20126;-78
2023/10/10 11:34:56;;;;;;;18.27;6.47;;;21.00;99.90;;;;;;5072570;28;20042;-77
2023/10/10 11:37:26;;;;;;;13.05;5.75;;;21.10;99.90;;;;;;5073961;28;20042;-77
2023/10/10 11:43:11;;;;;;;11.93;4.47;;;21.00;99.90;;;;;;5075382;28;20089;-78
2023/10/10 11:45:39;;;;;;;8.27;4.30;;;21.10;99.90;;;;;;5072976;28;20109;-78
2023/10/10 11:48:13;;;;;;;13.05;5.13;;;21.10;99.90;;;;;;5055726;28;20028;-79
2023/10/10 11:50:51;;;;;;;7.65;4.25;;;21.10;99.90;;;;;;5073083;28;20051;-79
2023/10/10 11:53:23;;;;;;;9.38;4.30;;;21.10;99.90;;;;;;5072240;28;20066;-79
2023/10/10 11:55:52;;;;;;;9.48;4.70;;;21.10;99.90;;;;;;5070433;28;20028;-79
2023/10/10 11:58:18;;;;;;;6.85;4.18;;;21.20;99.90;;;;;;5073752;28;20020;-79
2023/10/10 12:01:04;;;;;;;8.10;4.28;;;21.30;99.90;;;;;;5071966;28;20107;-78
2023/10/10 12:03:41;;;;;;;9.57;4.32;;;21.30;99.90;;;;;;5054317;28;20032;-79
2023/10/10 12:06:14;;;;;;;10.73;4.65;;;21.40;99.90;;;;;;5072926;28;20107;-79
2023/10/10 12:08:50;;;;;;;10.10;4.47;;;21.40;99.90;;;;;;5072169;28;20024;-79
2023/10/10 12:11:20;;;;;;;11.82;4.68;;;21.40;99.90;;;;;;5072404;28;20122;-80
2023/10/10 12:13:47;;;;;;;7.05;3.92;;;21.50;99.90;;;;;;5071404;28;20490;-79
2023/10/10 12:16:13;;;;;;;12.07;4.10;;;21.40;99.90;;;;;;5072812;28;20104;-78
2023/10/10 12:18:49;;;;;;;9.73;4.40;;;21.40;99.90;;;;;;5071348;28;20112;-79
2023/10/10 12:21:20;;;;;;;12.60;5.00;;;21.50;99.90;;;;;;5072002;28;20024;-78
2023/10/10 12:23:56;;;;;;;11.20;4.80;;;21.50;99.90;;;;;;5071804;28;20108;-79
2023/10/10 12:26:23;;;;;;;15.38;4.80;;;21.50;99.90;;;;;;5051817;28;20029;-78
2023/10/10 12:28:54;;;;;;;10.75;4.57;;;21.60;99.90;;;;;;5071204;28;20043;-78
2023/10/10 12:31:21;;;;;;;7.57;4.22;;;21.60;99.90;;;;;;5072194;28;20075;-77
2023/10/10 12:33:48;;;;;;;12.98;4.93;;;21.50;99.90;;;;;;5072456;28;20447;-79
2023/10/10 12:36:18;;;;;;;9.60;4.32;;;21.50;99.90;;;;;;5074468;28;20076;-79
2023/10/10 12:38:44;;;;;;;12.30;5.03;;;21.60;99.90;;;;;;5072683;28;20458;-78
2023/10/10 12:41:11;;;;;;;7.55;4.28;;;21.70;99.90;;;;;;5072363;28;20033;-79
2023/10/10 12:43:37;;;;;;;10.18;4.13;;;21.70;99.90;;;;;;5072116;28;20029;-78
2023/10/10 12:46:04;;;;;;;13.63;4.60;;;21.70;99.90;;;;;;5072866;28;20474;-79
2023/10/10 12:48:31;;;;;;;9.77;4.45;;;21.70;99.90;;;;;;5069679;28;20039;-79
2023/10/10 12:51:00;;;;;;;6.97;4.03;;;21.60;99.90;;;;;;5070977;28;20040;-79
2023/10/10 12:53:30;;;;;;;13.13;4.68;;;21.60;99.90;;;;;;5072596;28;20021;-78
2023/10/10 12:56:01;;;;;;;8.77;4.80;;;21.70;99.90;;;;;;5072475;28;20055;-79
2023/10/10 12:58:28;;;;;;;10.25;3.97;;;21.70;99.90;;;;;;5072599;28;20037;-77
2023/10/10 13:00:56;;;;;;;9.35;3.88;;;21.80;99.90;;;;;;5071006;28;20044;-79
2023/10/10 13:03:27;;;;;;;7.43;3.90;;;21.80;99.90;;;;;;5071332;28;20046;-80
2023/10/10 13:06:03;;;;;;;12.70;4.35;;;21.80;99.90;;;;;;5071053;28;20381;-79
2023/10/10 13:08:39;;;;;;;12.27;4.88;;;21.80;99.90;;;;;;5073448;28;20133;-79
2023/10/10 13:11:15;;;;;;;10.18;4.75;;;21.80;99.90;;;;;;5072006;28;20474;-80
2023/10/10 13:13:45;;;;;;;15.20;5.72;;;21.90;99.90;;;;;;5070492;28;20024;-81
2023/10/10 13:18:56;;;;;;;13.77;4.60;;;21.80;99.90;;;;;;5073532;28;20360;-79
2023/10/10 13:21:23;;;;;;;7.93;4.43;;;21.80;99.90;;;;;;5071342;28;20482;-80
2023/10/10 13:23:50;;;;;;;12.57;4.13;;;21.80;99.90;;;;;;5071177;28;20020;-80
2023/10/10 13:26:17;;;;;;;10.18;4.68;;;21.90;99.90;;;;;;5072076;28;20067;-80
2023/10/10 13:28:46;;;;;;;9.02;4.63;;;21.80;99.90;;;;;;5070534;28;20029;-79
2023/10/10 13:31:16;;;;;;;11.00;4.63;;;21.70;99.90;;;;;;5071219;28;20107;-80
2023/10/10 13:33:43;;;;;;;9.13;4.80;;;21.80;99.90;;;;;;5070529;28;20029;-80
2023/10/10 13:36:14;;;;;;;10.95;4.90;;;21.80;99.90;;;;;;5071507;28;20016;-79
2023/10/10 13:38:50;;;;;;;8.10;4.70;;;21.90;99.90;;;;;;5070435;28;20044;-80
2023/10/10 13:41:22;;;;;;;7.88;4.72;;;21.90;99.90;;;;;;5053747;28;20379;-80
2023/10/10 13:43:49;;;;;;;8.55;4.80;;;21.80;99.90;;;;;;5071357;28;20031;-79
2023/10/10 13:46:18;;;;;;;9.93;4.95;;;21.80;99.90;;;;;;5072715;28;20032;-80
2023/10/10 13:48:47;;;;;;;8.63;5.03;;;21.80;99.90;;;;;;5055522;28;20039;-80
2023/10/10 13:51:14;;;;;;;8.65;4.38;;;21.80;99.90;;;;;;5073944;28;20048;-80
2023/10/10 13:53:40;;;;;;;11.35;4.80;;;21.90;99.90;;;;;;5070692;28;20025;-80
2023/10/10 13:56:10;;;;;;;8.48;4.68;;;22.00;99.90;;;;;;5071008;28;20029;-80
2023/10/10 13:58:38;;;;;;;10.63;4.68;;;21.90;99.90;;;;;;5070655;28;20031;-80
2023/10/10 14:01:18;;;;;;;12.55;4.53;;;22.00;99.90;;;;;;5070978;28;20366;-80
2023/10/10 14:03:48;;;;;;;8.05;3.80;;;21.90;99.90;;;;;;5070580;28;20040;-80
2023/10/10 14:06:45;;;;;;;7.90;4.35;;;22.00;99.90;;;;;;5071033;28;20375;-80
2023/10/10 14:09:03;;;;;;;9.50;4.30;;;21.90;99.90;;;;;;5069684;28;20395;-79
2023/10/10 14:11:32;;;;;;;5.15;3.75;;;21.90;99.90;;;;;;5070820;28;20476;-79
2023/10/10 14:13:59;;;;;;;7.35;4.38;;;22.00;99.90;;;;;;5070135;28;20551;-78
2023/10/10 14:16:25;;;;;;;7.18;4.28;;;21.90;99.90;;;;;;5070767;28;20079;-79
2023/10/10 14:18:51;;;;;;;11.30;4.30;;;21.90;99.90;;;;;;5070253;28;20068;-80
2023/10/10 14:21:24;;;;;;;10.82;4.90;;;21.90;99.90;;;;;;5070962;28;20438;-80
2023/10/10 14:23:55;;;;;;;6.47;4.10;;;21.90;99.90;;;;;;5070596;28;20074;-80
2023/10/10 14:26:26;;;;;;;9.50;5.00;;;21.90;99.90;;;;;;5052998;28;20110;-79
2023/10/10 14:28:52;;;;;;;6.22;4.35;;;22.00;99.90;;;;;;5070952;28;20033;-81
2023/10/10 14:31:31;;;;;;;7.80;4.60;;;22.10;99.90;;;;;;5052994;28;20040;-79
2023/10/10 14:34:00;;;;;;;11.80;4.40;;;22.00;99.90;;;;;;5071547;28;20516;-80
2023/10/10 14:36:30;;;;;;;6.05;4.00;;;21.90;99.90;;;;;;5071587;28;20025;-80
2023/10/10 14:38:59;;;;;;;11.52;4.75;;;21.80;99.90;;;;;;5070874;28;20058;-80
2023/10/10 14:41:32;;;;;;;11.80;4.57;;;21.80;99.90;;;;;;5071708;28;20378;-79
2023/10/10 14:44:01;;;;;;;13.13;4.53;;;21.80;99.90;;;;;;5073123;28;20124;-79
2023/10/10 14:46:31;;;;;;;11.77;4.85;;;21.80;99.90;;;;;;5073797;28;20134;-80
2023/10/10 14:49:17;;;;;;;12.82;4.90;;;21.70;99.90;;;;;;5072798;28;20187;-80
2023/10/10 14:51:48;;;;;;;12.48;5.10;;;21.70;99.90;;;;;;5073376;28;20429;-80
2023/10/10 14:54:17;;;;;;;10.68;5.15;;;21.80;99.90;;;;;;5072648;28;20471;-80
2023/10/10 14:56:49;;;;;;;9.32;4.55;;;21.80;99.90;;;;;;5072676;28;20474;-80
2023/10/10 14:59:31;;;;;;;12.27;4.78;;;21.90;99.90;;;;;;5073602;28;20032;-80
2023/10/10 15:02:03;;;;;;;13.95;4.97;;;21.90;99.90;;;;;;5056018;28;20669;-80
2023/10/10 15:04:28;;;;;;;10.57;4.85;;;21.90;99.90;;;;;;5055757;28;20028;-80
2023/10/10 15:06:55;;;;;;;8.82;4.65;;;21.80;99.90;;;;;;5074122;28;20118;-80
2023/10/10 15:09:24;;;;;;;11.25;5.75;;;21.80;99.90;;;;;;5076254;28;20079;-80
2023/10/10 15:11:52;;;;;;;8.30;5.13;;;21.70;99.90;;;;;;5054527;28;20485;-80
2023/10/10 15:14:21;;;;;;;9.55;5.28;;;21.70;99.90;;;;;;5055015;28;20035;-80
2023/10/10 15:16:48;;;;;;;10.32;4.53;;;21.60;99.90;;;;;;5072330;28;20040;-80
2023/10/10 15:19:14;;;;;;;8.98;4.40;;;21.50;99.90;;;;;;5072703;28;20402;-80
2023/10/10 15:21:40;;;;;;;16.05;4.50;;;21.50;99.90;;;;;;5054468;28;20050;-81
2023/10/10 15:24:14;;;;;;;11.05;3.85;;;21.50;99.90;;;;;;5072396;28;20028;-80
2023/10/10 15:26:45;;;;;;;7.68;4.05;;;21.50;99.90;;;;;;5054304;28;20067;-81
2023/10/10 15:29:12;;;;;;;8.07;3.90;;;21.50;99.90;;;;;;5072986;28;20036;-79
2023/10/10 15:31:40;;;;;;;6.57;3.50;;;21.50;99.90;;;;;;5072337;28;20024;-80
2023/10/10 15:34:07;;;;;;;4.70;3.55;;;21.50;99.90;;;;;;5072439;28;20145;-80
2023/10/10 15:36:33;;;;;;;7.78;3.65;;;21.50;99.90;;;;;;5072777;28;20074;-81
2023/10/10 15:39:04;;;;;;;8.60;3.63;;;21.50;99.90;;;;;;5071329;28;20096;-80
2023/10/10 15:41:32;;;;;;;6.43;3.22;;;21.50;99.90;;;;;;5072883;28;20040;-80
2023/10/10 15:44:04;;;;;;;10.13;3.70;;;21.50;99.90;;;;;;5072150;28;20028;-80
2023/10/10 15:46:32;;;;;;;9.38;3.63;;;21.50;99.90;;;;;;5073576;28;20066;-80
2023/10/10 15:48:59;;;;;;;8.13;3.70;;;21.50;99.90;;;;;;5072222;28;20041;-80
2023/10/10 15:51:25;;;;;;;5.93;3.58;;;21.40;99.90;;;;;;5073085;28;20052;-78
2023/10/10 15:53:54;;;;;;;6.05;2.90;;;21.40;99.90;;;;;;5072482;28;20029;-78
2023/10/10 15:56:27;;;;;;;3.58;2.50;;;21.30;99.90;;;;;;5072251;28;20028;-79
2023/10/10 15:58:54;;;;;;;6.47;2.88;;;21.30;99.90;;;;;;5071680;28;20033;-78
2023/10/10 16:01:28;;;;;;;5.68;3.40;;;21.20;99.90;;;;;;5072207;28;20032;-79